createdAt,value
2023-05-18T00:01:32.102Z,7.15
2023-05-18T00:03:58.581Z,7.10
2023-05-18T00:06:25.386Z,7.06
2023-05-18T00:08:51.906Z,7.05
2023-05-18T00:11:18.238Z,6.97
2023-05-18T00:13:44.919Z,7.00
2023-05-18T00:16:11.384Z,7.05
2023-05-18T00:18:38.444Z,7.03
2023-05-18T00:21:04.949Z,7.02
2023-05-18T00:23:31.404Z,6.94
2023-05-18T00:26:02.431Z,6.87
2023-05-18T00:28:29.300Z,6.85
2023-05-18T00:30:56.307Z,6.80
2023-05-18T00:33:23.408Z,6.76
2023-05-18T00:35:49.756Z,6.76
2023-05-18T00:38:16.322Z,6.69
2023-05-18T00:40:42.779Z,6.69
2023-05-18T00:43:09.982Z,6.62
2023-05-18T00:45:36.704Z,6.63
2023-05-18T00:48:03.239Z,6.62
2023-05-18T00:50:29.955Z,6.55
2023-05-18T00:52:56.394Z,6.53
2023-05-18T00:55:22.780Z,6.48
2023-05-18T00:57:49.306Z,6.54
2023-05-18T01:00:15.960Z,6.46
2023-05-18T01:02:42.439Z,6.42
2023-05-18T01:05:09.938Z,6.39
2023-05-18T01:07:38.242Z,6.32
2023-05-18T01:10:05.409Z,6.33
2023-05-18T01:12:37.793Z,6.27
2023-05-18T01:15:07.462Z,6.27
2023-05-18T01:17:50.995Z,6.26
2023-05-18T01:20:43.805Z,6.20
2023-05-18T01:23:46.016Z,6.24
2023-05-18T01:26:17.627Z,6.20
2023-05-18T01:28:46.065Z,6.18
2023-05-18T01:31:14.255Z,6.18
2023-05-18T01:33:40.697Z,6.18
2023-05-18T01:36:07.521Z,6.15
2023-05-18T01:38:34.641Z,6.15
2023-05-18T01:41:23.935Z,6.12
2023-05-18T01:43:56.423Z,6.14
2023-05-18T01:46:34.702Z,6.15
2023-05-18T01:49:13.558Z,6.13
2023-05-18T01:51:45.572Z,6.08
2023-05-18T01:54:16.764Z,6.10
2023-05-18T01:56:44.999Z,6.07
2023-05-18T01:59:12.167Z,6.06
2023-05-18T02:01:38.643Z,6.03
2023-05-18T02:04:09.831Z,6.02
2023-05-18T02:06:36.710Z,5.99
2023-05-18T02:09:04.565Z,5.96
2023-05-18T02:11:31.058Z,5.96
2023-05-18T02:13:57.408Z,5.97
2023-05-18T02:16:24.137Z,5.89
2023-05-18T02:18:50.673Z,5.94
2023-05-18T02:21:17.084Z,5.91
2023-05-18T02:23:43.676Z,5.87
2023-05-18T02:26:10.373Z,5.84
2023-05-18T02:28:36.792Z,5.85
2023-05-18T02:31:08.068Z,5.82
2023-05-18T02:33:34.450Z,5.76
2023-05-18T02:36:00.878Z,5.74
2023-05-18T02:38:27.215Z,5.68
2023-05-18T02:40:53.747Z,5.64
2023-05-18T02:43:20.165Z,5.62
2023-05-18T02:45:46.890Z,5.60
2023-05-18T02:48:13.322Z,5.54
2023-05-18T02:50:39.941Z,5.49
2023-05-18T02:53:06.533Z,5.51
2023-05-18T02:55:33.011Z,5.55
2023-05-18T02:57:59.426Z,5.62
2023-05-18T03:00:26.004Z,5.54
2023-05-18T03:02:52.406Z,5.49
2023-05-18T03:05:18.968Z,5.47
2023-05-18T03:07:45.547Z,5.47
2023-05-18T03:10:11.898Z,5.45
2023-05-18T03:12:38.441Z,5.37
2023-05-18T03:15:05.408Z,5.33
2023-05-18T03:17:31.772Z,5.30
2023-05-18T03:19:58.187Z,5.25
2023-05-18T03:22:24.609Z,5.24
2023-05-18T03:24:51.006Z,5.18
2023-05-18T03:27:17.430Z,5.21
2023-05-18T03:29:44.679Z,5.27
2023-05-18T03:32:11.297Z,5.22
2023-05-18T03:34:37.715Z,5.21
2023-05-18T03:37:04.312Z,5.19
2023-05-18T03:39:30.673Z,5.17
2023-05-18T03:41:57.500Z,5.12
2023-05-18T03:44:23.858Z,5.16
2023-05-18T03:46:50.485Z,5.16
2023-05-18T03:49:16.869Z,5.12
2023-05-18T03:51:43.583Z,5.15
2023-05-18T03:54:09.928Z,5.28
2023-05-18T03:56:36.368Z,5.34
2023-05-18T03:59:02.724Z,5.32
2023-05-18T04:01:31.549Z,5.32
2023-05-18T04:03:59.102Z,5.29
2023-05-18T04:06:25.852Z,5.30
2023-05-18T04:08:53.106Z,5.33
2023-05-18T04:11:19.531Z,5.35
2023-05-18T04:13:46.281Z,5.27
2023-05-18T04:16:13.147Z,5.31
2023-05-18T04:18:42.609Z,5.44
2023-05-18T04:21:09.041Z,5.47
2023-05-18T04:23:35.468Z,5.48
2023-05-18T04:26:01.835Z,5.52
2023-05-18T04:28:28.506Z,5.55
2023-05-18T04:30:54.909Z,5.50
2023-05-18T04:33:21.247Z,5.62
2023-05-18T04:35:48.126Z,5.68
2023-05-18T04:38:14.477Z,5.67
2023-05-18T04:40:41.191Z,5.75
2023-05-18T04:43:07.544Z,5.86
2023-05-18T04:45:34.030Z,5.91
2023-05-18T04:48:00.695Z,5.97
2023-05-18T04:50:27.345Z,5.99
2023-05-18T04:52:54.114Z,6.03
2023-05-18T04:55:22.663Z,6.06
2023-05-18T04:57:50.256Z,6.06
2023-05-18T05:00:17.531Z,6.07
2023-05-18T05:02:44.012Z,6.09
2023-05-18T05:05:10.913Z,6.16
2023-05-18T05:07:37.412Z,6.21
2023-05-18T05:10:04.231Z,6.28
2023-05-18T05:12:30.711Z,6.32
2023-05-18T05:14:57.165Z,6.42
2023-05-18T05:17:24.759Z,6.51
2023-05-18T05:19:51.140Z,6.55
2023-05-18T05:22:17.564Z,6.61
2023-05-18T05:24:43.971Z,6.69
2023-05-18T05:27:10.582Z,6.77
2023-05-18T05:29:37.076Z,6.84
2023-05-18T05:32:03.743Z,6.83
2023-05-18T05:34:30.703Z,7.03
2023-05-18T05:36:57.138Z,7.08
2023-05-18T05:39:23.488Z,7.08
2023-05-18T05:41:49.921Z,7.17
2023-05-18T05:44:16.277Z,7.20
2023-05-18T05:46:43.023Z,7.30
2023-05-18T05:49:09.465Z,7.45
2023-05-18T05:51:36.194Z,7.67
2023-05-18T05:54:03.313Z,7.73
2023-05-18T05:56:29.923Z,7.92
2023-05-18T05:58:56.538Z,7.99
2023-05-18T06:01:22.963Z,8.33
2023-05-18T06:03:49.329Z,8.32
2023-05-18T06:06:15.761Z,8.20
2023-05-18T06:08:42.120Z,8.37
2023-05-18T06:11:10.786Z,8.44
2023-05-18T06:13:38.440Z,8.58
2023-05-18T06:16:05.023Z,8.62
2023-05-18T06:18:31.467Z,8.83
2023-05-18T06:20:57.952Z,8.86
2023-05-18T06:23:24.415Z,8.90
2023-05-18T06:25:50.998Z,9.18
2023-05-18T06:28:17.844Z,9.28
2023-05-18T06:30:44.585Z,9.26
2023-05-18T06:33:11.238Z,9.31
2023-05-18T06:35:37.707Z,9.35
2023-05-18T06:38:04.054Z,9.34
2023-05-18T06:40:30.653Z,9.17
2023-05-18T06:42:57.165Z,9.40
2023-05-18T06:45:23.516Z,9.35
2023-05-18T06:47:49.873Z,9.73
2023-05-18T06:50:16.553Z,9.57
2023-05-18T06:52:44.866Z,9.69
2023-05-18T06:55:11.313Z,9.72
2023-05-18T06:57:37.920Z,9.87
2023-05-18T07:00:07.774Z,9.90
2023-05-18T07:02:34.538Z,9.81
2023-05-18T07:05:00.897Z,9.81
2023-05-18T07:07:27.486Z,9.87
2023-05-18T07:09:53.844Z,10.06
2023-05-18T07:12:20.321Z,9.95
2023-05-18T07:14:46.760Z,10.43
2023-05-18T07:17:13.121Z,10.37
2023-05-18T07:19:39.748Z,10.34
2023-05-18T07:22:06.175Z,10.40
2023-05-18T07:24:32.778Z,10.80
2023-05-18T07:27:00.908Z,10.68
2023-05-18T07:29:29.829Z,10.76
2023-05-18T07:31:56.320Z,10.88
2023-05-18T07:34:24.006Z,10.95
2023-05-18T07:36:51.007Z,11.22
2023-05-18T07:39:19.078Z,11.30
2023-05-18T07:41:46.405Z,11.55
2023-05-18T07:44:13.457Z,11.54
2023-05-18T07:46:40.363Z,11.50
2023-05-18T07:49:06.942Z,11.56
2023-05-18T07:51:33.372Z,11.81
2023-05-18T07:53:59.988Z,12.00
2023-05-18T07:56:26.444Z,12.15
2023-05-18T07:58:52.793Z,12.20
2023-05-18T08:01:19.496Z,12.49
2023-05-18T08:03:45.953Z,12.58
2023-05-18T08:06:12.504Z,12.83
2023-05-18T08:08:41.702Z,13.56
2023-05-18T08:11:08.118Z,13.50
2023-05-18T08:13:34.474Z,13.64
2023-05-18T08:16:11.018Z,13.89
2023-05-18T08:18:38.469Z,13.61
2023-05-18T08:21:04.884Z,13.68
2023-05-18T08:23:31.354Z,13.85
2023-05-18T08:25:57.721Z,14.30
2023-05-18T08:28:24.164Z,14.21
2023-05-18T08:30:50.582Z,14.71
2023-05-18T08:33:16.986Z,15.37
2023-05-18T08:35:43.468Z,15.15
2023-05-18T08:38:10.077Z,15.24
2023-05-18T08:40:47.057Z,15.33
2023-05-18T08:43:21.482Z,15.70
2023-05-18T08:45:47.910Z,15.74
2023-05-18T08:48:16.143Z,15.98
2023-05-18T08:50:44.254Z,16.15
2023-05-18T08:53:11.293Z,16.36
2023-05-18T08:55:38.348Z,16.54
2023-05-18T08:58:07.818Z,16.92
2023-05-18T09:00:35.195Z,17.48
2023-05-18T09:03:04.927Z,18.09
2023-05-18T09:05:31.816Z,17.58
2023-05-18T09:07:59.124Z,17.55
2023-05-18T09:10:25.890Z,17.53
2023-05-18T09:12:52.762Z,17.56
2023-05-18T09:15:19.520Z,17.88
2023-05-18T09:17:45.944Z,18.22
2023-05-18T09:20:12.842Z,17.95
2023-05-18T09:22:39.808Z,18.51
2023-05-18T09:25:09.666Z,18.29
2023-05-18T09:27:36.951Z,18.46
2023-05-18T09:30:05.131Z,18.67
2023-05-18T09:32:35.055Z,18.53
2023-05-18T09:35:05.799Z,18.85
2023-05-18T09:37:33.060Z,19.20
2023-05-18T09:40:00.973Z,18.97
2023-05-18T09:42:37.169Z,18.96
2023-05-18T09:45:15.619Z,19.74
2023-05-18T09:47:42.173Z,19.52
2023-05-18T09:50:09.557Z,19.31
2023-05-18T09:52:41.929Z,19.18
2023-05-18T09:55:08.806Z,19.34
2023-05-18T09:57:40.597Z,19.71
2023-05-18T10:00:08.432Z,19.20
2023-05-18T10:02:38.325Z,19.07
2023-05-18T10:05:05.276Z,19.18
2023-05-18T10:07:35.205Z,18.96
2023-05-18T10:10:02.967Z,18.72
2023-05-18T10:12:29.519Z,18.42
2023-05-18T10:14:55.875Z,18.02
2023-05-18T10:17:24.589Z,17.63
2023-05-18T10:19:55.851Z,17.35
2023-05-18T10:22:23.413Z,17.33
2023-05-18T10:24:51.414Z,17.36
2023-05-18T10:27:19.098Z,17.24
2023-05-18T10:29:46.054Z,17.37
2023-05-18T10:32:12.982Z,17.52
2023-05-18T10:34:41.965Z,17.51
2023-05-18T10:37:11.912Z,17.27
2023-05-18T10:39:41.275Z,17.19
2023-05-18T10:42:10.469Z,16.81
2023-05-18T10:44:37.486Z,16.87
2023-05-18T10:47:06.122Z,16.81
2023-05-18T10:49:33.928Z,16.44
2023-05-18T10:52:02.848Z,16.37
2023-05-18T10:54:30.062Z,16.26
2023-05-18T10:56:56.788Z,16.33
2023-05-18T10:59:23.655Z,16.18
2023-05-18T11:01:52.595Z,16.47
2023-05-18T11:04:24.494Z,16.47
2023-05-18T11:06:58.990Z,16.34
2023-05-18T11:09:26.549Z,16.50
2023-05-18T11:12:00.040Z,16.30
2023-05-18T11:14:30.919Z,16.32
2023-05-18T11:17:25.817Z,16.70
2023-05-18T11:20:04.463Z,16.71
2023-05-18T11:22:46.780Z,16.55
2023-05-18T11:25:25.212Z,16.33
2023-05-18T11:27:53.560Z,16.49
2023-05-18T11:30:35.712Z,16.53
2023-05-18T11:33:17.214Z,16.74
2023-05-18T11:36:03.895Z,16.74
2023-05-18T11:38:47.018Z,16.71
2023-05-18T11:41:29.412Z,16.86
2023-05-18T11:44:04.533Z,16.90
2023-05-18T11:46:31.266Z,16.91
2023-05-18T11:49:03.160Z,16.99
2023-05-18T11:51:31.711Z,16.98
2023-05-18T11:53:59.599Z,16.88
2023-05-18T11:56:26.744Z,16.73
2023-05-18T11:59:11.983Z,16.74
2023-05-18T12:01:38.667Z,16.82
2023-05-18T12:04:06.108Z,16.99
2023-05-18T12:06:33.627Z,16.91
2023-05-18T12:09:00.990Z,16.81
2023-05-18T12:11:27.672Z,16.83
2023-05-18T12:13:54.920Z,16.69
2023-05-18T12:16:22.479Z,16.65
2023-05-18T12:18:49.990Z,16.52
2023-05-18T12:21:24.569Z,16.36
2023-05-18T12:24:00.838Z,16.34
2023-05-18T12:26:27.366Z,16.39
2023-05-18T12:28:54.567Z,16.65
2023-05-18T12:31:21.664Z,16.66
2023-05-18T12:33:48.745Z,16.71
2023-05-18T12:36:15.814Z,16.54
2023-05-18T12:38:42.525Z,16.50
2023-05-18T12:41:08.976Z,16.50
2023-05-18T12:43:38.239Z,16.64
2023-05-18T12:46:05.258Z,16.72
2023-05-18T12:48:44.987Z,17.22
2023-05-18T12:51:20.583Z,17.05
2023-05-18T12:53:49.218Z,17.07
2023-05-18T12:56:15.624Z,16.95
2023-05-18T12:58:56.061Z,16.80
2023-05-18T13:01:22.431Z,16.87
2023-05-18T13:03:55.360Z,16.84
2023-05-18T13:06:21.856Z,16.80
2023-05-18T13:08:48.612Z,16.71
2023-05-18T13:11:15.437Z,16.84
2023-05-18T13:14:04.469Z,16.65
2023-05-18T13:16:32.897Z,16.61
2023-05-18T13:19:04.694Z,16.55
2023-05-18T13:21:31.309Z,16.41
2023-05-18T13:23:57.786Z,16.37
2023-05-18T13:26:25.131Z,16.47
2023-05-18T13:28:53.992Z,16.54
2023-05-18T13:31:20.688Z,16.70
2023-05-18T13:33:47.478Z,16.97
2023-05-18T13:36:14.479Z,16.82
2023-05-18T13:38:41.511Z,16.68
2023-05-18T13:41:10.147Z,16.64
2023-05-18T13:43:36.552Z,16.72
2023-05-18T13:46:04.659Z,16.87
2023-05-18T13:48:31.068Z,17.00
2023-05-18T13:50:57.528Z,17.16
2023-05-18T13:53:24.061Z,17.48
2023-05-18T13:55:50.550Z,17.34
2023-05-18T13:58:17.001Z,17.35
2023-05-18T14:00:43.631Z,17.30
2023-05-18T14:03:10.251Z,17.09
2023-05-18T14:05:37.189Z,17.08
2023-05-18T14:08:03.677Z,17.24
2023-05-18T14:10:30.265Z,17.59
2023-05-18T14:12:56.861Z,17.94
2023-05-18T14:15:23.323Z,17.67
2023-05-18T14:17:50.163Z,17.77
2023-05-18T14:20:16.552Z,18.69
2023-05-18T14:22:42.973Z,19.03
2023-05-18T14:25:09.579Z,19.04
2023-05-18T14:27:36.013Z,19.34
2023-05-18T14:30:04.689Z,19.19
2023-05-18T14:32:31.236Z,18.92
2023-05-18T14:34:57.694Z,18.73
2023-05-18T14:37:24.136Z,18.83
2023-05-18T14:39:50.559Z,18.63
2023-05-18T14:42:16.995Z,18.61
2023-05-18T14:44:43.389Z,18.65
2023-05-18T14:47:09.830Z,18.10
2023-05-18T14:49:36.873Z,17.89
2023-05-18T14:52:03.332Z,17.74
2023-05-18T14:54:29.796Z,17.70
2023-05-18T14:56:56.213Z,17.77
2023-05-18T14:59:22.713Z,18.11
2023-05-18T15:01:49.126Z,18.04
2023-05-18T15:04:15.653Z,17.84
2023-05-18T15:06:42.097Z,17.58
2023-05-18T15:09:08.468Z,17.56
2023-05-18T15:11:35.011Z,17.52
2023-05-18T15:14:01.384Z,17.66
2023-05-18T15:16:28.213Z,17.63
2023-05-18T15:18:55.045Z,17.59
2023-05-18T15:21:21.492Z,17.59
2023-05-18T15:23:48.161Z,17.78
2023-05-18T15:26:14.886Z,17.88
2023-05-18T15:28:41.242Z,17.72
2023-05-18T15:31:07.693Z,17.48
2023-05-18T15:33:34.034Z,17.29
2023-05-18T15:36:00.812Z,17.09
2023-05-18T15:38:28.966Z,17.22
2023-05-18T15:40:56.135Z,17.02
2023-05-18T15:43:22.848Z,16.79
2023-05-18T15:45:49.281Z,16.85
2023-05-18T15:48:16.006Z,16.76
2023-05-18T15:50:42.720Z,16.96
2023-05-18T15:53:09.073Z,17.11
2023-05-18T15:55:35.780Z,17.11
2023-05-18T15:58:02.134Z,17.02
2023-05-18T16:00:28.617Z,16.83
2023-05-18T16:02:55.341Z,16.86
2023-05-18T16:05:21.861Z,16.69
2023-05-18T16:07:48.212Z,16.72
2023-05-18T16:10:14.702Z,16.60
2023-05-18T16:12:41.100Z,16.81
2023-05-18T16:15:07.934Z,16.82
2023-05-18T16:17:34.785Z,16.85
2023-05-18T16:20:03.488Z,16.86
2023-05-18T16:22:30.593Z,16.76
2023-05-18T16:24:57.047Z,16.78
2023-05-18T16:27:23.396Z,16.97
2023-05-18T16:29:50.084Z,16.78
2023-05-18T16:32:16.507Z,16.58
2023-05-18T16:34:43.208Z,16.81
2023-05-18T16:37:09.676Z,17.01
2023-05-18T16:39:36.359Z,17.41
2023-05-18T16:42:02.915Z,17.38
2023-05-18T16:44:29.361Z,17.40
2023-05-18T16:46:55.875Z,17.47
2023-05-18T16:49:22.342Z,17.58
2023-05-18T16:51:48.779Z,17.87
2023-05-18T16:54:15.134Z,18.20
2023-05-18T16:56:41.570Z,18.47
2023-05-18T16:59:07.932Z,18.66
2023-05-18T17:01:34.428Z,18.64
2023-05-18T17:04:01.036Z,18.20
2023-05-18T17:06:27.560Z,17.76
2023-05-18T17:08:53.911Z,17.48
2023-05-18T17:11:20.254Z,17.15
2023-05-18T17:13:46.790Z,16.99
2023-05-18T17:16:13.169Z,17.08
2023-05-18T17:18:39.617Z,17.29
2023-05-18T17:21:06.051Z,17.47
2023-05-18T17:23:32.397Z,17.48
2023-05-18T17:26:05.924Z,17.47
2023-05-18T17:28:32.955Z,17.61
2023-05-18T17:30:59.394Z,17.73
2023-05-18T17:33:26.089Z,17.92
2023-05-18T17:35:52.452Z,17.92
2023-05-18T17:38:18.893Z,17.61
2023-05-18T17:40:45.236Z,17.40
2023-05-18T17:43:11.681Z,17.06
2023-05-18T17:45:38.168Z,16.79
2023-05-18T17:48:05.196Z,16.54
2023-05-18T17:50:32.220Z,16.26
2023-05-18T17:52:58.796Z,16.24
2023-05-18T17:55:25.147Z,16.08
2023-05-18T17:57:51.605Z,15.97
2023-05-18T18:00:18.310Z,15.89
2023-05-18T18:02:44.830Z,15.82
2023-05-18T18:05:11.216Z,15.80
2023-05-18T18:07:39.417Z,15.75
2023-05-18T18:10:08.208Z,15.64
2023-05-18T18:12:34.593Z,15.68
2023-05-18T18:15:01.027Z,15.56
2023-05-18T18:17:27.412Z,15.55
2023-05-18T18:19:53.873Z,15.50
2023-05-18T18:22:20.682Z,15.47
2023-05-18T18:24:47.116Z,15.41
2023-05-18T18:27:13.615Z,15.29
2023-05-18T18:29:39.977Z,15.21
2023-05-18T18:32:06.774Z,15.22
2023-05-18T18:34:33.216Z,15.22
2023-05-18T18:36:59.584Z,15.16
2023-05-18T18:39:26.030Z,15.07
2023-05-18T18:41:52.408Z,14.92
2023-05-18T18:44:19.103Z,14.97
2023-05-18T18:46:45.502Z,14.88
2023-05-18T18:49:11.862Z,14.88
2023-05-18T18:51:38.571Z,14.76
2023-05-18T18:54:05.610Z,14.70
2023-05-18T18:56:32.052Z,14.63
2023-05-18T18:58:58.485Z,14.58
2023-05-18T19:01:24.893Z,14.63
2023-05-18T19:03:51.350Z,14.49
2023-05-18T19:06:17.755Z,14.45
2023-05-18T19:08:44.196Z,14.45
2023-05-18T19:11:10.810Z,14.46
2023-05-18T19:13:37.223Z,14.39
2023-05-18T19:16:03.781Z,14.27
2023-05-18T19:18:30.165Z,14.31
2023-05-18T19:20:56.582Z,14.19
2023-05-18T19:23:22.956Z,14.20
2023-05-18T19:25:49.524Z,14.21
2023-05-18T19:28:15.866Z,14.09
2023-05-18T19:30:42.253Z,14.04
2023-05-18T19:33:09.031Z,14.07
2023-05-18T19:35:35.396Z,14.11
2023-05-18T19:38:01.873Z,13.99
2023-05-18T19:40:28.293Z,13.92
2023-05-18T19:42:55.008Z,13.84
2023-05-18T19:45:21.696Z,13.85
2023-05-18T19:47:48.061Z,13.77
2023-05-18T19:50:14.571Z,13.81
2023-05-18T19:52:40.948Z,13.78
2023-05-18T19:55:07.795Z,13.76
2023-05-18T19:57:34.367Z,13.72
2023-05-18T20:00:00.742Z,13.62
2023-05-18T20:02:27.148Z,13.51
2023-05-18T20:04:53.630Z,13.58
2023-05-18T20:07:20.361Z,13.53
2023-05-18T20:09:46.976Z,13.47
2023-05-18T20:12:13.432Z,13.38
2023-05-18T20:14:39.786Z,13.34
2023-05-18T20:17:06.589Z,13.28
2023-05-18T20:19:33.009Z,13.29
2023-05-18T20:21:59.458Z,13.24
2023-05-18T20:24:26.028Z,13.15
2023-05-18T20:26:52.388Z,13.14
2023-05-18T20:29:18.921Z,13.16
2023-05-18T20:31:45.360Z,13.16
2023-05-18T20:34:11.849Z,13.20
2023-05-18T20:36:38.456Z,13.09
2023-05-18T20:39:04.802Z,13.04
2023-05-18T20:41:31.299Z,12.99
2023-05-18T20:43:57.644Z,12.86
2023-05-18T20:46:24.142Z,12.84
2023-05-18T20:48:50.797Z,12.82
2023-05-18T20:51:18.361Z,12.83
2023-05-18T20:53:46.116Z,12.81
2023-05-18T20:56:12.544Z,12.87
2023-05-18T20:58:38.903Z,12.85
2023-05-18T21:01:05.493Z,12.84
2023-05-18T21:03:32.689Z,12.83
2023-05-18T21:05:59.070Z,12.76
2023-05-18T21:08:25.449Z,12.77
2023-05-18T21:10:51.799Z,12.75
2023-05-18T21:13:18.242Z,12.66
2023-05-18T21:15:44.635Z,12.64
2023-05-18T21:18:11.134Z,12.60
2023-05-18T21:20:37.887Z,12.49
2023-05-18T21:23:04.440Z,12.40
2023-05-18T21:25:30.894Z,12.39
2023-05-18T21:27:57.316Z,12.37
2023-05-18T21:30:23.744Z,12.34
2023-05-18T21:32:50.337Z,12.29
2023-05-18T21:35:16.881Z,12.26
2023-05-18T21:37:43.424Z,12.27
2023-05-18T21:40:10.066Z,12.21
2023-05-18T21:42:37.080Z,12.17
2023-05-18T21:45:04.100Z,12.12
2023-05-18T21:47:30.817Z,12.05
2023-05-18T21:49:57.267Z,12.05
2023-05-18T21:52:23.876Z,11.97
2023-05-18T21:54:50.299Z,11.89
2023-05-18T21:57:16.650Z,11.84
2023-05-18T21:59:43.266Z,11.91
2023-05-18T22:02:09.690Z,11.85
2023-05-18T22:04:36.460Z,11.82
2023-05-18T22:07:03.105Z,11.82
2023-05-18T22:09:29.485Z,11.85
2023-05-18T22:11:56.196Z,11.80
2023-05-18T22:14:22.565Z,11.85
2023-05-18T22:16:49.029Z,11.79
2023-05-18T22:19:15.615Z,11.79
2023-05-18T22:21:42.338Z,11.71
2023-05-18T22:24:08.754Z,11.64
2023-05-18T22:26:35.207Z,11.67
2023-05-18T22:29:01.584Z,11.55
2023-05-18T22:31:28.359Z,11.51
2023-05-18T22:33:55.357Z,11.59
2023-05-18T22:36:21.935Z,11.56
2023-05-18T22:38:48.419Z,11.55
2023-05-18T22:41:15.308Z,11.47
2023-05-18T22:43:42.153Z,11.46
2023-05-18T22:46:08.577Z,11.45
2023-05-18T22:48:34.976Z,11.40
2023-05-18T22:51:01.409Z,11.40
2023-05-18T22:53:27.763Z,11.32
2023-05-18T22:55:54.126Z,11.31
2023-05-18T22:58:20.599Z,11.25
2023-05-18T23:00:47.010Z,11.19
2023-05-18T23:03:13.454Z,11.19
2023-05-18T23:05:40.104Z,11.12
2023-05-18T23:08:07.350Z,11.09
2023-05-18T23:10:33.940Z,11.08
2023-05-18T23:13:00.870Z,11.02
2023-05-18T23:15:27.566Z,11.01
2023-05-18T23:17:53.992Z,10.89
2023-05-18T23:20:21.500Z,10.88
2023-05-18T23:22:47.951Z,10.79
2023-05-18T23:25:14.726Z,10.79
2023-05-18T23:27:41.328Z,10.77
2023-05-18T23:30:08.079Z,10.77
2023-05-18T23:32:35.372Z,10.81
2023-05-18T23:35:02.534Z,10.79
2023-05-18T23:37:32.064Z,10.74
2023-05-18T23:40:02.092Z,10.71
2023-05-18T23:42:28.757Z,10.72
2023-05-18T23:44:55.549Z,10.77
2023-05-18T23:47:22.198Z,10.74
2023-05-18T23:49:48.863Z,10.68
2023-05-18T23:52:19.622Z,10.70
2023-05-18T23:54:46.229Z,10.67
2023-05-18T23:57:12.851Z,10.63
2023-05-18T23:59:40.712Z,10.63
